Terminal Aerodrome Forecast
Issued by NWS Duluth, MN

Home | Current Version | Previous Version | Text Only | Print | Product List | Glossary On
Versions: 1 2 3 4 5 6 7 8 9 10 11 12 13 14 15 16 17 18 19 20 21 22 23 24 25 26 27 28 29 30 31 32
000
FTUS43 KDLH 291733
TAFDLH
TAF
KDLH 291733Z 2918/3018 25008KT P6SM BKN025 BKN045
      TEMPO 2918/2921 SCT025 OVC045
     FM292100 22010KT P6SM SCT050
     FM300000 19006KT P6SM FEW150
     FM301400 18011KT P6SM SCT050=

USA.gov is the U.S. government's official web portal to all federal, state and local government web resources and services.